LIBP/PSR METAR and TAF weather

Enter ICAO airport designator
Station Type Date Time Source
LIBP METAR 2022/10/01 07:50 UTC NOAA

LIBP 010750Z AUTO VRB02KT 9999 BKN016/// BKN170/// 21/16 Q1016


Station Type Date Time Source
LIBP Decoded METAR 2022/10/01 07:50 UTC NOAA

Pescara, Italy (LIBP) 42-26N 014-12E 11M
Oct 01, 2022 - 03:50 AM EDT / 2022.10.01 0750 UTC
Wind: Variable at 2 MPH (2 KT):0
Visibility: greater than 7 mile(s):0
Sky conditions: mostly cloudy
Temperature: 69 F (21 C)
Dew Point: 60 F (16 C)
Relative Humidity: 73%
Pressure (altimeter): 30.00 in. Hg (1016 hPa)
ob: LIBP 010750Z AUTO VRB02KT 9999 BKN016/// BKN170/// 21/16 Q1016
cycle: 8

Station Type Date Time Source
LIBP TAF 2022/10/01 06:21 UTC NOAA

TAF LIBP 010500Z 0106/0206 VRB05KT 9999 SCT080
BECMG 0108/0110 36010KT
TEMPO 0112/0116 TSRA
BECMG 0116/0118 VRB05KT

Example: see airport list